sensor_id;sensor_type;location;lat;lon;timestamp;pressure;altitude;pressure_sealevel;temperature;humidity
5814;BME280;2933;52.302;8.134;2023-02-20T00:03:10;101328.28;;;5.33;100.00
5814;BME280;2933;52.302;8.134;2023-02-20T00:08:15;101329.78;;;5.42;100.00
5814;BME280;2933;52.302;8.134;2023-02-20T00:13:17;101311.63;;;5.42;100.00
5814;BME280;2933;52.302;8.134;2023-02-20T00:18:18;101304.63;;;5.46;100.00
5814;BME280;2933;52.302;8.134;2023-02-20T00:23:21;101266.22;;;5.29;100.00
5814;BME280;2933;52.302;8.134;2023-02-20T00:28:23;101291.78;;;5.41;100.00
5814;BME280;2933;52.302;8.134;2023-02-20T00:33:25;101281.75;;;5.29;100.00
5814;BME280;2933;52.302;8.134;2023-02-20T00:38:28;101276.63;;;5.27;100.00
5814;BME280;2933;52.302;8.134;2023-02-20T00:43:29;101254.41;;;5.17;100.00
5814;BME280;2933;52.302;8.134;2023-02-20T00:48:35;101265.38;;;5.27;100.00
5814;BME280;2933;52.302;8.134;2023-02-20T00:53:38;101264.44;;;5.31;100.00
5814;BME280;2933;52.302;8.134;2023-02-20T00:58:39;101250.81;;;5.23;100.00
5814;BME280;2933;52.302;8.134;2023-02-20T01:03:41;101238.81;;;5.20;100.00
5814;BME280;2933;52.302;8.134;2023-02-20T01:08:44;101240.53;;;5.20;100.00
5814;BME280;2933;52.302;8.134;2023-02-20T01:13:45;101233.47;;;5.26;100.00
5814;BME280;2933;52.302;8.134;2023-02-20T01:18:48;101203.31;;;5.24;100.00
5814;BME280;2933;52.302;8.134;2023-02-20T01:23:51;101198.97;;;5.24;100.00
5814;BME280;2933;52.302;8.134;2023-02-20T01:28:53;101184.19;;;5.28;100.00
5814;BME280;2933;52.302;8.134;2023-02-20T01:33:54;101213.66;;;5.24;100.00
5814;BME280;2933;52.302;8.134;2023-02-20T01:38:57;101189.63;;;5.18;100.00
5814;BME280;2933;52.302;8.134;2023-02-20T01:43:59;101197.91;;;5.31;100.00
5814;BME280;2933;52.302;8.134;2023-02-20T01:49:03;101176.53;;;5.25;100.00
5814;BME280;2933;52.302;8.134;2023-02-20T01:54:10;101149.97;;;5.16;100.00
5814;BME280;2933;52.302;8.134;2023-02-20T01:59:14;101154.00;;;5.27;100.00
5814;BME280;2933;52.302;8.134;2023-02-20T02:04:17;101137.38;;;5.34;100.00
5814;BME280;2933;52.302;8.134;2023-02-20T02:09:27;101121.13;;;5.29;100.00
5814;BME280;2933;52.302;8.134;2023-02-20T02:14:32;101127.41;;;5.20;100.00
5814;BME280;2933;52.302;8.134;2023-02-20T02:25:29;101114.16;;;5.31;100.00
5814;BME280;2933;52.302;8.134;2023-02-20T02:30:47;101117.72;;;5.27;100.00
5814;BME280;2933;52.302;8.134;2023-02-20T02:36:27;101088.16;;;5.34;100.00
5814;BME280;2933;52.302;8.134;2023-02-20T02:41:41;101070.06;;;5.32;100.00
5814;BME280;2933;52.302;8.134;2023-02-20T02:46:49;101074.44;;;5.30;100.00
5814;BME280;2933;52.302;8.134;2023-02-20T02:51:54;101057.25;;;5.28;100.00
5814;BME280;2933;52.302;8.134;2023-02-20T02:57:18;101059.84;;;5.28;100.00
5814;BME280;2933;52.302;8.134;2023-02-20T03:02:20;101059.25;;;5.18;100.00
5814;BME280;2933;52.302;8.134;2023-02-20T03:07:25;101057.44;;;5.22;100.00
5814;BME280;2933;52.302;8.134;2023-02-20T03:12:28;101010.59;;;4.99;100.00
5814;BME280;2933;52.302;8.134;2023-02-20T03:17:35;101036.75;;;5.20;100.00
5814;BME280;2933;52.302;8.134;2023-02-20T03:22:42;101048.66;;;5.27;100.00
5814;BME280;2933;52.302;8.134;2023-02-20T03:27:49;101044.34;;;5.26;100.00
5814;BME280;2933;52.302;8.134;2023-02-20T03:32:55;101041.19;;;5.16;100.00
5814;BME280;2933;52.302;8.134;2023-02-20T03:38:20;101033.03;;;5.29;100.00
5814;BME280;2933;52.302;8.134;2023-02-20T03:43:43;101042.56;;;5.28;100.00
5814;BME280;2933;52.302;8.134;2023-02-20T03:48:49;101022.44;;;5.37;100.00
5814;BME280;2933;52.302;8.134;2023-02-20T03:53:55;101013.91;;;5.33;100.00
5814;BME280;2933;52.302;8.134;2023-02-20T03:59:01;101016.31;;;5.39;100.00
5814;BME280;2933;52.302;8.134;2023-02-20T04:04:05;101008.47;;;5.42;100.00
5814;BME280;2933;52.302;8.134;2023-02-20T04:09:11;101001.72;;;5.37;100.00
5814;BME280;2933;52.302;8.134;2023-02-20T04:14:17;100978.41;;;5.37;100.00
5814;BME280;2933;52.302;8.134;2023-02-20T04:19:21;100975.63;;;5.43;100.00
5814;BME280;2933;52.302;8.134;2023-02-20T04:24:27;100969.69;;;5.39;100.00
5814;BME280;2933;52.302;8.134;2023-02-20T04:29:29;100950.75;;;5.37;100.00
5814;BME280;2933;52.302;8.134;2023-02-20T04:34:31;100935.69;;;5.22;100.00
5814;BME280;2933;52.302;8.134;2023-02-20T04:39:34;100930.94;;;5.34;100.00
5814;BME280;2933;52.302;8.134;2023-02-20T04:44:36;100914.78;;;5.28;100.00
5814;BME280;2933;52.302;8.134;2023-02-20T04:49:39;100931.97;;;5.30;100.00
5814;BME280;2933;52.302;8.134;2023-02-20T04:54:42;100938.09;;;5.28;100.00
5814;BME280;2933;52.302;8.134;2023-02-20T04:59:43;100926.88;;;5.27;100.00
5814;BME280;2933;52.302;8.134;2023-02-20T05:04:45;100920.72;;;5.31;100.00
5814;BME280;2933;52.302;8.134;2023-02-20T05:09:48;100929.41;;;5.29;100.00
5814;BME280;2933;52.302;8.134;2023-02-20T05:14:52;100870.75;;;5.01;100.00
5814;BME280;2933;52.302;8.134;2023-02-20T05:20:01;100903.03;;;5.17;100.00
5814;BME280;2933;52.302;8.134;2023-02-20T05:25:05;100886.97;;;5.06;100.00
5814;BME280;2933;52.302;8.134;2023-02-20T05:30:08;100890.53;;;5.02;100.00
5814;BME280;2933;52.302;8.134;2023-02-20T05:35:10;100916.75;;;5.20;100.00
5814;BME280;2933;52.302;8.134;2023-02-20T05:40:13;100870.75;;;5.01;100.00
5814;BME280;2933;52.302;8.134;2023-02-20T05:45:15;100891.22;;;5.09;100.00
5814;BME280;2933;52.302;8.134;2023-02-20T05:50:17;100907.56;;;5.09;100.00
5814;BME280;2933;52.302;8.134;2023-02-20T05:55:19;100902.34;;;5.11;100.00
5814;BME280;2933;52.302;8.134;2023-02-20T06:00:22;100868.47;;;4.90;100.00
5814;BME280;2933;52.302;8.134;2023-02-20T06:05:23;100916.06;;;5.14;100.00
5814;BME280;2933;52.302;8.134;2023-02-20T06:10:28;100933.22;;;5.17;100.00
5814;BME280;2933;52.302;8.134;2023-02-20T06:15:30;100882.75;;;5.04;100.00
5814;BME280;2933;52.302;8.134;2023-02-20T06:20:31;100908.00;;;5.24;100.00
5814;BME280;2933;52.302;8.134;2023-02-20T06:25:34;100916.75;;;5.20;100.00
5814;BME280;2933;52.302;8.134;2023-02-20T06:30:36;100888.22;;;5.21;100.00
5814;BME280;2933;52.302;8.134;2023-02-20T06:35:37;100853.63;;;4.95;100.00
5814;BME280;2933;52.302;8.134;2023-02-20T06:40:40;100905.66;;;5.16;100.00
5814;BME280;2933;52.302;8.134;2023-02-20T06:45:42;100889.19;;;5.17;100.00
5814;BME280;2933;52.302;8.134;2023-02-20T06:50:43;100897.53;;;5.27;100.00
5814;BME280;2933;52.302;8.134;2023-02-20T06:55:46;100879.50;;;5.24;100.00
5814;BME280;2933;52.302;8.134;2023-02-20T07:00:48;100881.22;;;5.23;100.00
5814;BME280;2933;52.302;8.134;2023-02-20T07:05:49;100892.22;;;5.31;100.00
5814;BME280;2933;52.302;8.134;2023-02-20T07:10:52;100904.31;;;5.31;100.00
5814;BME280;2933;52.302;8.134;2023-02-20T07:15:54;100907.63;;;5.36;100.00
5814;BME280;2933;52.302;8.134;2023-02-20T07:20:55;100908.38;;;5.40;100.00
5814;BME280;2933;52.302;8.134;2023-02-20T07:25:58;100902.44;;;5.36;100.00
5814;BME280;2933;52.302;8.134;2023-02-20T07:31:00;100918.41;;;5.49;100.00
5814;BME280;2933;52.302;8.134;2023-02-20T07:36:02;100935.53;;;5.53;100.00
5814;BME280;2933;52.302;8.134;2023-02-20T07:41:05;100933.91;;;5.50;100.00
5814;BME280;2933;52.302;8.134;2023-02-20T07:46:07;100918.13;;;5.58;100.00
5814;BME280;2933;52.302;8.134;2023-02-20T07:51:08;100890.72;;;5.51;100.00
5814;BME280;2933;52.302;8.134;2023-02-20T07:56:11;100909.13;;;5.69;100.00
5814;BME280;2933;52.302;8.134;2023-02-20T08:01:13;100922.09;;;5.69;100.00
5814;BME280;2933;52.302;8.134;2023-02-20T08:06:16;100890.19;;;5.66;100.00
5814;BME280;2933;52.302;8.134;2023-02-20T08:11:20;100856.97;;;5.53;100.00
5814;BME280;2933;52.302;8.134;2023-02-20T08:16:22;100891.69;;;5.74;100.00
5814;BME280;2933;52.302;8.134;2023-02-20T08:21:24;100878.09;;;5.67;100.00
5814;BME280;2933;52.302;8.134;2023-02-20T08:26:29;100888.13;;;5.76;100.00
5814;BME280;2933;52.302;8.134;2023-02-20T08:31:33;100890.44;;;5.84;100.00
5814;BME280;2933;52.302;8.134;2023-02-20T08:36:34;100882.13;;;5.74;100.00
5814;BME280;2933;52.302;8.134;2023-02-20T08:41:41;100889.50;;;5.87;100.00
5814;BME280;2933;52.302;8.134;2023-02-20T08:46:47;100865.75;;;5.74;100.00
5814;BME280;2933;52.302;8.134;2023-02-20T08:51:51;100886.59;;;5.96;100.00
5814;BME280;2933;52.302;8.134;2023-02-20T08:56:55;100878.75;;;5.97;100.00
5814;BME280;2933;52.302;8.134;2023-02-20T09:01:57;100875.16;;;6.02;100.00
5814;BME280;2933;52.302;8.134;2023-02-20T09:06:58;100873.31;;;6.05;100.00
5814;BME280;2933;52.302;8.134;2023-02-20T09:12:01;100856.84;;;6.06;100.00
5814;BME280;2933;52.302;8.134;2023-02-20T09:17:03;100867.06;;;6.11;100.00
5814;BME280;2933;52.302;8.134;2023-02-20T09:22:05;100858.34;;;6.13;100.00
5814;BME280;2933;52.302;8.134;2023-02-20T09:27:08;100852.31;;;6.13;100.00
5814;BME280;2933;52.302;8.134;2023-02-20T09:32:09;100853.66;;;6.23;100.00
5814;BME280;2933;52.302;8.134;2023-02-20T09:37:11;100866.63;;;6.23;100.00
5814;BME280;2933;52.302;8.134;2023-02-20T09:42:23;100881.53;;;6.18;100.00
5814;BME280;2933;52.302;8.134;2023-02-20T09:47:50;100889.91;;;6.25;100.00
5814;BME280;2933;52.302;8.134;2023-02-20T09:52:58;100879.31;;;6.31;100.00
5814;BME280;2933;52.302;8.134;2023-02-20T09:58:05;100881.84;;;6.33;100.00
5814;BME280;2933;52.302;8.134;2023-02-20T10:03:15;100861.81;;;6.36;100.00
5814;BME280;2933;52.302;8.134;2023-02-20T10:08:20;100870.50;;;6.35;100.00
5814;BME280;2933;52.302;8.134;2023-02-20T10:13:36;100865.28;;;6.37;100.00
5814;BME280;2933;52.302;8.134;2023-02-20T10:18:48;100869.31;;;6.44;100.00
5814;BME280;2933;52.302;8.134;2023-02-20T10:23:57;100876.88;;;6.50;100.00
5814;BME280;2933;52.302;8.134;2023-02-20T10:29:14;100876.16;;;6.46;100.00
5814;BME280;2933;52.302;8.134;2023-02-20T10:34:20;100880.03;;;6.58;100.00
5814;BME280;2933;52.302;8.134;2023-02-20T10:39:24;100870.97;;;6.46;100.00
5814;BME280;2933;52.302;8.134;2023-02-20T10:44:29;100867.19;;;6.55;100.00
5814;BME280;2933;52.302;8.134;2023-02-20T10:49:37;100873.63;;;6.67;100.00
5814;BME280;2933;52.302;8.134;2023-02-20T10:54:42;100874.13;;;6.77;100.00
5814;BME280;2933;52.302;8.134;2023-02-20T10:59:48;100851.19;;;6.88;100.00
5814;BME280;2933;52.302;8.134;2023-02-20T11:04:56;100848.66;;;6.87;100.00
5814;BME280;2933;52.302;8.134;2023-02-20T11:09:58;100843.88;;;6.98;100.00
5814;BME280;2933;52.302;8.134;2023-02-20T11:15:06;100855.16;;;6.97;100.00
5814;BME280;2933;52.302;8.134;2023-02-20T11:20:36;100837.72;;;7.01;100.00
5814;BME280;2933;52.302;8.134;2023-02-20T11:25:40;100834.13;;;7.03;100.00
5814;BME280;2933;52.302;8.134;2023-02-20T11:30:45;100838.69;;;6.98;100.00
5814;BME280;2933;52.302;8.134;2023-02-20T11:35:49;100840.38;;;6.99;100.00
5814;BME280;2933;52.302;8.134;2023-02-20T11:41:07;100823.09;;;6.98;100.00
5814;BME280;2933;52.302;8.134;2023-02-20T11:46:14;100814.09;;;7.07;100.00
5814;BME280;2933;52.302;8.134;2023-02-20T11:51:30;100832.16;;;7.10;100.00
5814;BME280;2933;52.302;8.134;2023-02-20T11:56:32;100818.69;;;7.21;100.00
5814;BME280;2933;52.302;8.134;2023-02-20T12:01:35;100802.91;;;7.05;100.00
5814;BME280;2933;52.302;8.134;2023-02-20T12:06:41;100811.97;;;7.17;100.00
5814;BME280;2933;52.302;8.134;2023-02-20T12:11:43;100817.97;;;7.17;100.00
5814;BME280;2933;52.302;8.134;2023-02-20T12:17:09;100799.03;;;7.15;100.00
5814;BME280;2933;52.302;8.134;2023-02-20T12:22:19;100813.03;;;7.11;100.00
5814;BME280;2933;52.302;8.134;2023-02-20T12:27:33;100822.41;;;7.15;100.00
5814;BME280;2933;52.302;8.134;2023-02-20T12:32:49;100800.50;;;7.00;100.00
5814;BME280;2933;52.302;8.134;2023-02-20T12:38:05;100806.22;;;7.08;100.00
5814;BME280;2933;52.302;8.134;2023-02-20T12:43:23;100824.63;;;7.04;100.00
5814;BME280;2933;52.302;8.134;2023-02-20T12:48:40;100811.66;;;7.02;100.00
5814;BME280;2933;52.302;8.134;2023-02-20T12:53:52;100790.63;;;6.88;100.00
5814;BME280;2933;52.302;8.134;2023-02-20T12:59:04;100810.09;;;6.98;100.00
5814;BME280;2933;52.302;8.134;2023-02-20T13:04:21;100807.75;;;6.92;100.00
5814;BME280;2933;52.302;8.134;2023-02-20T13:09:25;100801.34;;;7.01;100.00
5814;BME280;2933;52.302;8.134;2023-02-20T13:14:39;100794.69;;;6.93;100.00
5814;BME280;2933;52.302;8.134;2023-02-20T13:19:51;100788.50;;;6.98;100.00
5814;BME280;2933;52.302;8.134;2023-02-20T13:25:34;100786.66;;;7.00;100.00
5814;BME280;2933;52.302;8.134;2023-02-20T13:30:39;100777.19;;;6.99;100.00
5814;BME280;2933;52.302;8.134;2023-02-20T13:35:56;100730.34;;;6.79;100.00
5814;BME280;2933;52.302;8.134;2023-02-20T13:41:04;100769.28;;;7.02;100.00
5814;BME280;2933;52.302;8.134;2023-02-20T13:46:15;100769.19;;;7.03;100.00
5814;BME280;2933;52.302;8.134;2023-02-20T13:51:33;100765.94;;;6.98;100.00
5814;BME280;2933;52.302;8.134;2023-02-20T13:56:44;100764.97;;;7.01;100.00
5814;BME280;2933;52.302;8.134;2023-02-20T14:01:57;100765.78;;;7.03;100.00
5814;BME280;2933;52.302;8.134;2023-02-20T14:07:02;100755.63;;;6.97;100.00
5814;BME280;2933;52.302;8.134;2023-02-20T14:12:06;100741.84;;;6.94;100.00
5814;BME280;2933;52.302;8.134;2023-02-20T14:17:14;100732.44;;;6.92;100.00
5814;BME280;2933;52.302;8.134;2023-02-20T14:22:25;100727.13;;;6.95;100.00
5814;BME280;2933;52.302;8.134;2023-02-20T14:27:30;100732.59;;;6.89;100.00
5814;BME280;2933;52.302;8.134;2023-02-20T14:32:32;100735.50;;;7.02;100.00
5814;BME280;2933;52.302;8.134;2023-02-20T14:37:42;100730.41;;;6.99;100.00
5814;BME280;2933;52.302;8.134;2023-02-20T14:42:48;100715.41;;;6.85;100.00
5814;BME280;2933;52.302;8.134;2023-02-20T14:47:51;100739.88;;;7.01;100.00
5814;BME280;2933;52.302;8.134;2023-02-20T14:53:11;100727.06;;;6.97;100.00
5814;BME280;2933;52.302;8.134;2023-02-20T14:58:14;100721.06;;;6.94;100.00
5814;BME280;2933;52.302;8.134;2023-02-20T15:03:20;100741.59;;;7.01;100.00
5814;BME280;2933;52.302;8.134;2023-02-20T15:08:27;100741.34;;;7.07;100.00
5814;BME280;2933;52.302;8.134;2023-02-20T15:13:35;100736.22;;;7.05;100.00
5814;BME280;2933;52.302;8.134;2023-02-20T15:18:39;100725.75;;;7.07;100.00
5814;BME280;2933;52.302;8.134;2023-02-20T15:23:48;100731.09;;;7.04;100.00
5814;BME280;2933;52.302;8.134;2023-02-20T15:29:11;100727.56;;;7.05;100.00
5814;BME280;2933;52.302;8.134;2023-02-20T15:34:17;100729.97;;;7.09;100.00
5814;BME280;2933;52.302;8.134;2023-02-20T15:39:23;100742.00;;;7.12;100.00
5814;BME280;2933;52.302;8.134;2023-02-20T15:44:25;100745.44;;;7.13;100.00
5814;BME280;2933;52.302;8.134;2023-02-20T15:49:26;100759.09;;;7.18;100.00
5814;BME280;2933;52.302;8.134;2023-02-20T15:54:29;100753.34;;;7.09;100.00
5814;BME280;2933;52.302;8.134;2023-02-20T15:59:30;100742.88;;;7.11;100.00
5814;BME280;2933;52.302;8.134;2023-02-20T16:04:32;100757.50;;;7.14;100.00
5814;BME280;2933;52.302;8.134;2023-02-20T16:09:35;100747.34;;;7.09;100.00
5814;BME280;2933;52.302;8.134;2023-02-20T16:14:36;100756.66;;;7.13;100.00
5814;BME280;2933;52.302;8.134;2023-02-20T16:19:38;100756.56;;;7.16;100.00
5814;BME280;2933;52.302;8.134;2023-02-20T16:24:41;100760.78;;;7.19;100.00
5814;BME280;2933;52.302;8.134;2023-02-20T16:29:43;100736.59;;;7.17;100.00
5814;BME280;2933;52.302;8.134;2023-02-20T16:34:45;100753.16;;;7.14;100.00
5814;BME280;2933;52.302;8.134;2023-02-20T16:39:48;100748.69;;;7.18;100.00
5814;BME280;2933;52.302;8.134;2023-02-20T16:44:50;100754.06;;;7.13;100.00
5814;BME280;2933;52.302;8.134;2023-02-20T16:49:54;100759.28;;;7.13;100.00
5814;BME280;2933;52.302;8.134;2023-02-20T16:54:59;100760.81;;;7.17;100.00
5814;BME280;2933;52.302;8.134;2023-02-20T17:00:02;100764.09;;;7.22;100.00
5814;BME280;2933;52.302;8.134;2023-02-20T17:05:05;100759.59;;;7.26;100.00
5814;BME280;2933;52.302;8.134;2023-02-20T17:10:08;100759.72;;;7.23;100.00
5814;BME280;2933;52.302;8.134;2023-02-20T17:15:11;100769.34;;;7.21;100.00
5814;BME280;2933;52.302;8.134;2023-02-20T17:20:16;100764.03;;;7.24;100.00
5814;BME280;2933;52.302;8.134;2023-02-20T17:25:21;100752.00;;;7.21;100.00
5814;BME280;2933;52.302;8.134;2023-02-20T17:30:23;100769.16;;;7.25;100.00
5814;BME280;2933;52.302;8.134;2023-02-20T17:35:25;100768.88;;;7.32;100.00
5814;BME280;2933;52.302;8.134;2023-02-20T17:40:28;100766.44;;;7.28;100.00
5814;BME280;2933;52.302;8.134;2023-02-20T17:45:29;100763.75;;;7.30;100.00
5814;BME280;2933;52.302;8.134;2023-02-20T17:50:31;100767.91;;;7.34;100.00
5814;BME280;2933;52.302;8.134;2023-02-20T17:55:34;100773.97;;;7.35;100.00
5814;BME280;2933;52.302;8.134;2023-02-20T18:00:36;100766.16;;;7.35;100.00
5814;BME280;2933;52.302;8.134;2023-02-20T18:05:37;100768.88;;;7.32;100.00
5814;BME280;2933;52.302;8.134;2023-02-20T18:10:40;100771.16;;;7.39;100.00
5814;BME280;2933;52.302;8.134;2023-02-20T18:15:42;100766.75;;;7.41;100.00
5814;BME280;2933;52.302;8.134;2023-02-20T18:20:43;100777.22;;;7.40;100.00
5814;BME280;2933;52.302;8.134;2023-02-20T18:25:47;100778.03;;;7.40;100.00
5814;BME280;2933;52.302;8.134;2023-02-20T18:30:49;100766.84;;;7.38;100.00
5814;BME280;2933;52.302;8.134;2023-02-20T18:35:50;100785.97;;;7.37;100.00
5814;BME280;2933;52.302;8.134;2023-02-20T18:40:54;100769.69;;;7.34;100.00
5814;BME280;2933;52.302;8.134;2023-02-20T18:45:55;100772.19;;;7.35;100.00
5814;BME280;2933;52.302;8.134;2023-02-20T18:50:57;100771.28;;;7.36;100.00
5814;BME280;2933;52.302;8.134;2023-02-20T18:55:59;100771.94;;;7.41;100.00
5814;BME280;2933;52.302;8.134;2023-02-20T19:01:01;100745.91;;;7.22;100.00
5814;BME280;2933;52.302;8.134;2023-02-20T19:06:03;100754.34;;;7.27;100.00
5814;BME280;2933;52.302;8.134;2023-02-20T19:11:06;100721.91;;;7.16;100.00
5814;BME280;2933;52.302;8.134;2023-02-20T19:16:10;100757.41;;;7.37;100.00
5814;BME280;2933;52.302;8.134;2023-02-20T19:21:12;100745.09;;;7.41;100.00
5814;BME280;2933;52.302;8.134;2023-02-20T19:26:15;100740.09;;;7.36;100.00
5814;BME280;2933;52.302;8.134;2023-02-20T19:31:18;100717.97;;;7.27;100.00
5814;BME280;2933;52.302;8.134;2023-02-20T19:36:19;100728.91;;;7.34;100.00
5814;BME280;2933;52.302;8.134;2023-02-20T19:41:22;100738.34;;;7.37;100.00
5814;BME280;2933;52.302;8.134;2023-02-20T19:46:24;100735.56;;;7.41;100.00
5814;BME280;2933;52.302;8.134;2023-02-20T19:51:25;100727.75;;;7.41;100.00
5814;BME280;2933;52.302;8.134;2023-02-20T19:56:28;100731.13;;;7.43;100.00
5814;BME280;2933;52.302;8.134;2023-02-20T20:01:30;100737.97;;;7.46;100.00
5814;BME280;2933;52.302;8.134;2023-02-20T20:06:31;100699.69;;;7.29;100.00
5814;BME280;2933;52.302;8.134;2023-02-20T20:11:35;100697.88;;;7.31;100.00
5814;BME280;2933;52.302;8.134;2023-02-20T20:16:36;100722.34;;;7.46;100.00
5814;BME280;2933;52.302;8.134;2023-02-20T20:21:40;100724.09;;;7.46;100.00
5814;BME280;2933;52.302;8.134;2023-02-20T20:26:44;100692.81;;;7.28;100.00
5814;BME280;2933;52.302;8.134;2023-02-20T20:31:57;100705.16;;;7.43;100.00
5814;BME280;2933;52.302;8.134;2023-02-20T20:36:58;100723.19;;;7.47;100.00
5814;BME280;2933;52.302;8.134;2023-02-20T20:42:01;100719.94;;;7.41;100.00
5814;BME280;2933;52.302;8.134;2023-02-20T20:47:03;100722.22;;;7.49;100.00
5814;BME280;2933;52.302;8.134;2023-02-20T20:52:05;100708.78;;;7.39;100.00
5814;BME280;2933;52.302;8.134;2023-02-20T20:57:08;100707.59;;;7.47;100.00
5814;BME280;2933;52.302;8.134;2023-02-20T21:02:10;100678.13;;;7.27;100.00
5814;BME280;2933;52.302;8.134;2023-02-20T21:07:11;100690.94;;;7.51;100.00
5814;BME280;2933;52.302;8.134;2023-02-20T21:12:14;100702.66;;;7.40;100.00
5814;BME280;2933;52.302;8.134;2023-02-20T21:17:16;100649.69;;;7.24;100.00
5814;BME280;2933;52.302;8.134;2023-02-20T21:22:19;100665.41;;;7.21;100.00
5814;BME280;2933;52.302;8.134;2023-02-20T21:27:22;100699.16;;;7.41;100.00
5814;BME280;2933;52.302;8.134;2023-02-20T21:32:24;100665.41;;;7.21;100.00
5814;BME280;2933;52.302;8.134;2023-02-20T21:37:27;100691.72;;;7.34;100.00
5814;BME280;2933;52.302;8.134;2023-02-20T21:42:30;100694.16;;;7.37;100.00
5814;BME280;2933;52.302;8.134;2023-02-20T21:47:49;100694.16;;;7.37;100.00
5814;BME280;2933;52.302;8.134;2023-02-20T21:52:50;100680.72;;;7.27;100.00
5814;BME280;2933;52.302;8.134;2023-02-20T21:57:53;100688.75;;;7.41;100.00
5814;BME280;2933;52.302;8.134;2023-02-20T22:03:00;100689.75;;;7.39;100.00
5814;BME280;2933;52.302;8.134;2023-02-20T22:08:00;100694.88;;;7.40;100.00
5814;BME280;2933;52.302;8.134;2023-02-20T22:13:21;100665.28;;;7.24;100.00
5814;BME280;2933;52.302;8.134;2023-02-20T22:18:40;100696.28;;;7.48;100.00
5814;BME280;2933;52.302;8.134;2023-02-20T22:23:58;100697.19;;;7.47;100.00
5814;BME280;2933;52.302;8.134;2023-02-20T22:29:19;100695.31;;;7.50;100.00
5814;BME280;2933;52.302;8.134;2023-02-20T22:34:38;100689.94;;;7.53;100.00
5814;BME280;2933;52.302;8.134;2023-02-20T22:39:57;100701.91;;;7.57;100.00
5814;BME280;2933;52.302;8.134;2023-02-20T22:45:17;100701.00;;;7.58;100.00
5814;BME280;2933;52.302;8.134;2023-02-20T22:50:36;100710.56;;;7.58;100.00
5814;BME280;2933;52.302;8.134;2023-02-20T22:55:55;100707.94;;;7.58;100.00
5814;BME280;2933;52.302;8.134;2023-02-20T23:01:16;100706.00;;;7.63;100.00
5814;BME280;2933;52.302;8.134;2023-02-20T23:06:35;100695.59;;;7.63;100.00
5814;BME280;2933;52.302;8.134;2023-02-20T23:11:54;100699.25;;;7.59;100.00
5814;BME280;2933;52.302;8.134;2023-02-20T23:17:15;100691.16;;;7.65;100.00
5814;BME280;2933;52.302;8.134;2023-02-20T23:22:33;100687.78;;;7.63;100.00
5814;BME280;2933;52.302;8.134;2023-02-20T23:27:52;100683.38;;;7.65;100.00
5814;BME280;2933;52.302;8.134;2023-02-20T23:33:13;100684.00;;;7.70;100.00
5814;BME280;2933;52.302;8.134;2023-02-20T23:38:32;100696.44;;;7.64;100.00
5814;BME280;2933;52.302;8.134;2023-02-20T23:43:51;100697.63;;;7.56;100.00
5814;BME280;2933;52.302;8.134;2023-02-20T23:49:11;100706.78;;;7.65;100.00
5814;BME280;2933;52.302;8.134;2023-02-20T23:54:30;100703.47;;;7.62;100.00
5814;BME280;2933;52.302;8.134;2023-02-20T23:59:49;100702.47;;;7.64;100.00
